sensor_id;sensor_type;location;lat;lon;timestamp;temperature;humidity
66934;DHT22;53846;51.984;5.890;2022-08-19T00:00:30;22.50;65.70
66934;DHT22;53846;51.984;5.890;2022-08-19T00:02:59;22.50;65.70
66934;DHT22;53846;51.984;5.890;2022-08-19T00:05:29;22.70;65.90
66934;DHT22;53846;51.984;5.890;2022-08-19T00:07:58;22.40;65.80
66934;DHT22;53846;51.984;5.890;2022-08-19T00:10:27;22.40;65.80
66934;DHT22;53846;51.984;5.890;2022-08-19T00:12:56;22.40;66.10
66934;DHT22;53846;51.984;5.890;2022-08-19T00:15:25;22.30;66.30
66934;DHT22;53846;51.984;5.890;2022-08-19T00:17:56;22.30;66.30
66934;DHT22;53846;51.984;5.890;2022-08-19T00:20:26;22.30;66.40
66934;DHT22;53846;51.984;5.890;2022-08-19T00:22:55;22.30;66.30
66934;DHT22;53846;51.984;5.890;2022-08-19T00:25:24;22.00;66.20
66934;DHT22;53846;51.984;5.890;2022-08-19T00:27:53;22.20;66.50
66934;DHT22;53846;51.984;5.890;2022-08-19T00:30:22;22.20;66.60
66934;DHT22;53846;51.984;5.890;2022-08-19T00:32:51;22.20;66.60
66934;DHT22;53846;51.984;5.890;2022-08-19T00:35:24;22.00;66.70
66934;DHT22;53846;51.984;5.890;2022-08-19T00:37:53;21.80;66.60
66934;DHT22;53846;51.984;5.890;2022-08-19T00:40:23;22.10;66.70
66934;DHT22;53846;51.984;5.890;2022-08-19T00:42:52;22.10;67.00
66934;DHT22;53846;51.984;5.890;2022-08-19T00:45:25;22.00;67.20
66934;DHT22;53846;51.984;5.890;2022-08-19T00:47:56;22.00;67.20
66934;DHT22;53846;51.984;5.890;2022-08-19T00:50:33;22.00;67.20
66934;DHT22;53846;51.984;5.890;2022-08-19T00:53:03;21.90;67.10
66934;DHT22;53846;51.984;5.890;2022-08-19T00:55:33;21.90;67.10
66934;DHT22;53846;51.984;5.890;2022-08-19T00:58:05;21.90;67.10
66934;DHT22;53846;51.984;5.890;2022-08-19T01:00:36;21.90;67.20
66934;DHT22;53846;51.984;5.890;2022-08-19T01:03:06;21.90;67.20
66934;DHT22;53846;51.984;5.890;2022-08-19T01:05:40;21.90;67.30
66934;DHT22;53846;51.984;5.890;2022-08-19T01:08:11;21.80;67.30
66934;DHT22;53846;51.984;5.890;2022-08-19T01:10:43;21.80;67.30
66934;DHT22;53846;51.984;5.890;2022-08-19T01:13:14;21.80;67.40
66934;DHT22;53846;51.984;5.890;2022-08-19T01:15:50;21.80;67.40
66934;DHT22;53846;51.984;5.890;2022-08-19T01:18:21;21.80;67.50
66934;DHT22;53846;51.984;5.890;2022-08-19T01:20:55;21.70;67.40
66934;DHT22;53846;51.984;5.890;2022-08-19T01:23:27;21.70;69.30
66934;DHT22;53846;51.984;5.890;2022-08-19T01:26:10;21.70;68.90
66934;DHT22;53846;51.984;5.890;2022-08-19T01:28:41;21.40;68.20
66934;DHT22;53846;51.984;5.890;2022-08-19T01:31:15;21.50;67.90
66934;DHT22;53846;51.984;5.890;2022-08-19T01:33:45;21.70;67.90
66934;DHT22;53846;51.984;5.890;2022-08-19T01:36:26;21.70;67.90
66934;DHT22;53846;51.984;5.890;2022-08-19T01:38:59;21.50;68.50
66934;DHT22;53846;51.984;5.890;2022-08-19T01:41:28;21.40;70.00
66934;DHT22;53846;51.984;5.890;2022-08-19T01:43:57;21.50;69.50
66934;DHT22;53846;51.984;5.890;2022-08-19T01:46:27;21.50;68.90
66934;DHT22;53846;51.984;5.890;2022-08-19T01:48:56;21.60;68.70
66934;DHT22;53846;51.984;5.890;2022-08-19T01:51:25;21.60;68.50
66934;DHT22;53846;51.984;5.890;2022-08-19T01:53:54;21.50;68.30
66934;DHT22;53846;51.984;5.890;2022-08-19T01:56:26;21.60;68.40
66934;DHT22;53846;51.984;5.890;2022-08-19T01:58:58;21.50;68.20
66934;DHT22;53846;51.984;5.890;2022-08-19T02:01:28;21.50;68.20
66934;DHT22;53846;51.984;5.890;2022-08-19T02:03:58;21.50;68.40
66934;DHT22;53846;51.984;5.890;2022-08-19T02:06:28;21.40;68.50
66934;DHT22;53846;51.984;5.890;2022-08-19T02:08:57;21.40;68.50
66934;DHT22;53846;51.984;5.890;2022-08-19T02:11:30;21.10;68.40
66934;DHT22;53846;51.984;5.890;2022-08-19T02:14:02;21.50;68.70
66934;DHT22;53846;51.984;5.890;2022-08-19T02:16:31;21.40;68.70
66934;DHT22;53846;51.984;5.890;2022-08-19T02:19:01;21.40;68.80
66934;DHT22;53846;51.984;5.890;2022-08-19T02:21:30;21.40;68.60
66934;DHT22;53846;51.984;5.890;2022-08-19T02:23:59;21.40;68.60
66934;DHT22;53846;51.984;5.890;2022-08-19T02:26:31;21.30;68.60
66934;DHT22;53846;51.984;5.890;2022-08-19T02:29:01;21.30;68.70
66934;DHT22;53846;51.984;5.890;2022-08-19T02:31:30;21.40;68.60
66934;DHT22;53846;51.984;5.890;2022-08-19T02:34:00;21.70;68.70
66934;DHT22;53846;51.984;5.890;2022-08-19T02:36:30;21.60;68.60
66934;DHT22;53846;51.984;5.890;2022-08-19T02:38:59;21.60;68.50
66934;DHT22;53846;51.984;5.890;2022-08-19T02:41:28;21.30;68.20
66934;DHT22;53846;51.984;5.890;2022-08-19T02:44:02;21.40;68.50
66934;DHT22;53846;51.984;5.890;2022-08-19T02:46:32;21.40;68.60
66934;DHT22;53846;51.984;5.890;2022-08-19T02:49:05;21.40;68.70
66934;DHT22;53846;51.984;5.890;2022-08-19T02:51:36;21.30;68.70
66934;DHT22;53846;51.984;5.890;2022-08-19T02:54:06;21.40;68.90
66934;DHT22;53846;51.984;5.890;2022-08-19T02:56:36;21.40;68.90
66934;DHT22;53846;51.984;5.890;2022-08-19T02:59:08;21.40;69.00
66934;DHT22;53846;51.984;5.890;2022-08-19T03:01:39;21.30;69.10
66934;DHT22;53846;51.984;5.890;2022-08-19T03:04:11;21.20;69.10
66934;DHT22;53846;51.984;5.890;2022-08-19T03:06:42;21.00;69.00
66934;DHT22;53846;51.984;5.890;2022-08-19T03:09:12;21.20;69.20
66934;DHT22;53846;51.984;5.890;2022-08-19T03:11:41;21.20;69.20
66934;DHT22;53846;51.984;5.890;2022-08-19T03:14:13;21.40;69.30
66934;DHT22;53846;51.984;5.890;2022-08-19T03:16:44;21.30;69.20
66934;DHT22;53846;51.984;5.890;2022-08-19T03:19:16;21.30;69.10
66934;DHT22;53846;51.984;5.890;2022-08-19T03:21:46;21.20;69.10
66934;DHT22;53846;51.984;5.890;2022-08-19T03:24:17;21.40;69.20
66934;DHT22;53846;51.984;5.890;2022-08-19T03:26:49;21.10;69.10
66934;DHT22;53846;51.984;5.890;2022-08-19T03:29:21;21.20;69.20
66934;DHT22;53846;51.984;5.890;2022-08-19T03:31:50;21.40;69.20
66934;DHT22;53846;51.984;5.890;2022-08-19T03:34:23;21.40;69.10
66934;DHT22;53846;51.984;5.890;2022-08-19T03:36:54;21.10;69.00
66934;DHT22;53846;51.984;5.890;2022-08-19T03:39:25;21.20;69.10
66934;DHT22;53846;51.984;5.890;2022-08-19T03:41:54;21.10;69.10
66934;DHT22;53846;51.984;5.890;2022-08-19T03:44:29;21.10;69.10
66934;DHT22;53846;51.984;5.890;2022-08-19T03:46:59;21.10;69.20
66934;DHT22;53846;51.984;5.890;2022-08-19T03:49:30;21.20;69.40
66934;DHT22;53846;51.984;5.890;2022-08-19T03:52:01;21.10;69.30
66934;DHT22;53846;51.984;5.890;2022-08-19T03:54:33;21.00;69.30
66934;DHT22;53846;51.984;5.890;2022-08-19T03:57:04;21.00;69.20
66934;DHT22;53846;51.984;5.890;2022-08-19T03:59:38;20.90;69.20
66934;DHT22;53846;51.984;5.890;2022-08-19T04:02:09;20.80;69.10
66934;DHT22;53846;51.984;5.890;2022-08-19T04:04:40;20.80;69.10
66934;DHT22;53846;51.984;5.890;2022-08-19T04:07:11;21.00;69.30
66934;DHT22;53846;51.984;5.890;2022-08-19T04:09:42;20.70;69.10
66934;DHT22;53846;51.984;5.890;2022-08-19T04:12:11;20.80;69.00
66934;DHT22;53846;51.984;5.890;2022-08-19T04:14:43;21.20;69.20
66934;DHT22;53846;51.984;5.890;2022-08-19T04:17:12;20.70;69.30
66934;DHT22;53846;51.984;5.890;2022-08-19T04:19:41;20.90;69.40
66934;DHT22;53846;51.984;5.890;2022-08-19T04:22:11;20.60;69.40
66934;DHT22;53846;51.984;5.890;2022-08-19T04:24:40;20.90;69.50
66934;DHT22;53846;51.984;5.890;2022-08-19T04:27:09;21.10;69.50
66934;DHT22;53846;51.984;5.890;2022-08-19T04:29:38;20.90;69.30
66934;DHT22;53846;51.984;5.890;2022-08-19T04:32:10;20.50;69.20
66934;DHT22;53846;51.984;5.890;2022-08-19T04:34:41;20.70;69.50
66934;DHT22;53846;51.984;5.890;2022-08-19T04:37:11;21.00;69.80
66934;DHT22;53846;51.984;5.890;2022-08-19T04:39:40;21.00;69.90
66934;DHT22;53846;51.984;5.890;2022-08-19T04:42:21;21.00;69.90
66934;DHT22;53846;51.984;5.890;2022-08-19T04:45:04;20.80;69.90
66934;DHT22;53846;51.984;5.890;2022-08-19T04:47:36;20.60;69.90
66934;DHT22;53846;51.984;5.890;2022-08-19T04:50:06;20.90;70.20
66934;DHT22;53846;51.984;5.890;2022-08-19T04:52:38;21.00;70.30
66934;DHT22;53846;51.984;5.890;2022-08-19T04:55:09;20.70;70.10
66934;DHT22;53846;51.984;5.890;2022-08-19T04:57:39;20.40;69.80
66934;DHT22;53846;51.984;5.890;2022-08-19T05:00:09;20.90;70.20
66934;DHT22;53846;51.984;5.890;2022-08-19T05:02:41;20.60;70.00
66934;DHT22;53846;51.984;5.890;2022-08-19T05:05:11;20.60;70.10
66934;DHT22;53846;51.984;5.890;2022-08-19T05:07:40;20.70;70.30
66934;DHT22;53846;51.984;5.890;2022-08-19T05:10:09;20.80;70.40
66934;DHT22;53846;51.984;5.890;2022-08-19T05:12:38;20.60;70.30
66934;DHT22;53846;51.984;5.890;2022-08-19T05:15:08;20.40;70.20
66934;DHT22;53846;51.984;5.890;2022-08-19T05:17:37;20.40;70.20
66934;DHT22;53846;51.984;5.890;2022-08-19T05:20:29;20.60;70.40
66934;DHT22;53846;51.984;5.890;2022-08-19T05:23:10;20.50;70.60
66934;DHT22;53846;51.984;5.890;2022-08-19T05:25:41;20.50;70.60
66934;DHT22;53846;51.984;5.890;2022-08-19T05:28:10;20.50;70.50
66934;DHT22;53846;51.984;5.890;2022-08-19T05:30:39;20.70;70.60
66934;DHT22;53846;51.984;5.890;2022-08-19T05:33:10;20.50;70.40
66934;DHT22;53846;51.984;5.890;2022-08-19T05:35:42;20.50;70.60
66934;DHT22;53846;51.984;5.890;2022-08-19T05:38:12;20.60;71.30
66934;DHT22;53846;51.984;5.890;2022-08-19T05:40:42;20.50;71.20
66934;DHT22;53846;51.984;5.890;2022-08-19T05:43:15;20.70;71.40
66934;DHT22;53846;51.984;5.890;2022-08-19T05:45:45;20.70;71.70
66934;DHT22;53846;51.984;5.890;2022-08-19T05:48:16;20.30;71.40
66934;DHT22;53846;51.984;5.890;2022-08-19T05:50:49;20.70;72.50
66934;DHT22;53846;51.984;5.890;2022-08-19T05:53:18;20.60;72.50
66934;DHT22;53846;51.984;5.890;2022-08-19T05:55:47;20.40;72.10
66934;DHT22;53846;51.984;5.890;2022-08-19T05:58:16;20.50;71.90
66934;DHT22;53846;51.984;5.890;2022-08-19T06:00:45;20.80;72.20
66934;DHT22;53846;51.984;5.890;2022-08-19T06:03:15;20.90;72.20
66934;DHT22;53846;51.984;5.890;2022-08-19T06:05:44;20.70;72.00
66934;DHT22;53846;51.984;5.890;2022-08-19T06:08:15;21.00;72.70
66934;DHT22;53846;51.984;5.890;2022-08-19T06:10:45;20.70;73.50
66934;DHT22;53846;51.984;5.890;2022-08-19T06:13:14;20.70;74.90
66934;DHT22;53846;51.984;5.890;2022-08-19T06:15:43;20.90;75.60
66934;DHT22;53846;51.984;5.890;2022-08-19T06:18:12;20.90;76.00
66934;DHT22;53846;51.984;5.890;2022-08-19T06:20:42;20.90;76.20
66934;DHT22;53846;51.984;5.890;2022-08-19T06:23:11;20.80;75.90
66934;DHT22;53846;51.984;5.890;2022-08-19T06:25:43;21.00;76.70
66934;DHT22;53846;51.984;5.890;2022-08-19T06:28:12;20.80;76.40
66934;DHT22;53846;51.984;5.890;2022-08-19T06:30:41;20.60;76.50
66934;DHT22;53846;51.984;5.890;2022-08-19T06:33:10;20.80;76.60
66934;DHT22;53846;51.984;5.890;2022-08-19T06:35:39;20.90;76.60
66934;DHT22;53846;51.984;5.890;2022-08-19T06:38:09;21.10;77.40
66934;DHT22;53846;51.984;5.890;2022-08-19T06:40:38;21.10;79.00
66934;DHT22;53846;51.984;5.890;2022-08-19T06:43:10;21.10;79.40
66934;DHT22;53846;51.984;5.890;2022-08-19T06:45:41;21.10;79.80
66934;DHT22;53846;51.984;5.890;2022-08-19T06:48:11;21.20;79.80
66934;DHT22;53846;51.984;5.890;2022-08-19T06:50:40;21.20;80.00
66934;DHT22;53846;51.984;5.890;2022-08-19T06:53:09;21.20;80.00
66934;DHT22;53846;51.984;5.890;2022-08-19T06:55:38;21.10;80.10
66934;DHT22;53846;51.984;5.890;2022-08-19T06:58:09;21.10;80.40
66934;DHT22;53846;51.984;5.890;2022-08-19T07:00:39;21.00;80.40
66934;DHT22;53846;51.984;5.890;2022-08-19T07:03:08;21.10;80.50
66934;DHT22;53846;51.984;5.890;2022-08-19T07:05:39;21.40;80.90
66934;DHT22;53846;51.984;5.890;2022-08-19T07:08:08;21.30;81.30
66934;DHT22;53846;51.984;5.890;2022-08-19T07:10:37;21.20;82.20
66934;DHT22;53846;51.984;5.890;2022-08-19T07:13:13;21.10;81.60
66934;DHT22;53846;51.984;5.890;2022-08-19T07:15:42;21.20;81.70
66934;DHT22;53846;51.984;5.890;2022-08-19T07:18:12;21.20;81.70
66934;DHT22;53846;51.984;5.890;2022-08-19T07:20:41;21.20;81.30
66934;DHT22;53846;51.984;5.890;2022-08-19T07:23:11;21.20;81.20
66934;DHT22;53846;51.984;5.890;2022-08-19T07:25:40;21.30;81.30
66934;DHT22;53846;51.984;5.890;2022-08-19T07:28:09;21.20;81.00
66934;DHT22;53846;51.984;5.890;2022-08-19T07:30:41;21.30;81.10
66934;DHT22;53846;51.984;5.890;2022-08-19T07:33:10;21.30;80.90
66934;DHT22;53846;51.984;5.890;2022-08-19T07:35:39;21.30;80.90
66934;DHT22;53846;51.984;5.890;2022-08-19T07:38:08;21.30;80.50
66934;DHT22;53846;51.984;5.890;2022-08-19T07:40:37;21.40;80.40
66934;DHT22;53846;51.984;5.890;2022-08-19T07:43:07;21.30;80.30
66934;DHT22;53846;51.984;5.890;2022-08-19T07:45:36;21.30;80.10
66934;DHT22;53846;51.984;5.890;2022-08-19T07:48:07;21.40;80.10
66934;DHT22;53846;51.984;5.890;2022-08-19T07:50:37;21.40;80.40
66934;DHT22;53846;51.984;5.890;2022-08-19T07:53:06;21.40;80.20
66934;DHT22;53846;51.984;5.890;2022-08-19T07:55:35;21.50;80.10
66934;DHT22;53846;51.984;5.890;2022-08-19T07:58:04;21.60;79.80
66934;DHT22;53846;51.984;5.890;2022-08-19T08:00:34;21.60;79.60
66934;DHT22;53846;51.984;5.890;2022-08-19T08:03:03;21.50;79.50
66934;DHT22;53846;51.984;5.890;2022-08-19T08:05:34;21.70;79.60
66934;DHT22;53846;51.984;5.890;2022-08-19T08:08:16;21.80;79.50
66934;DHT22;53846;51.984;5.890;2022-08-19T08:10:57;21.90;79.20
66934;DHT22;53846;51.984;5.890;2022-08-19T08:13:27;21.90;78.60
66934;DHT22;53846;51.984;5.890;2022-08-19T08:15:56;22.00;78.30
66934;DHT22;53846;51.984;5.890;2022-08-19T08:18:26;22.20;77.10
66934;DHT22;53846;51.984;5.890;2022-08-19T08:20:58;22.20;77.60
66934;DHT22;53846;51.984;5.890;2022-08-19T08:23:27;22.20;77.10
66934;DHT22;53846;51.984;5.890;2022-08-19T08:25:58;22.30;76.60
66934;DHT22;53846;51.984;5.890;2022-08-19T08:28:28;22.60;76.30
66934;DHT22;53846;51.984;5.890;2022-08-19T08:30:57;22.40;75.60
66934;DHT22;53846;51.984;5.890;2022-08-19T08:33:28;22.50;74.50
66934;DHT22;53846;51.984;5.890;2022-08-19T08:36:01;22.90;74.90
66934;DHT22;53846;51.984;5.890;2022-08-19T08:38:31;22.90;75.60
66934;DHT22;53846;51.984;5.890;2022-08-19T08:41:06;22.90;74.00
66934;DHT22;53846;51.984;5.890;2022-08-19T08:43:39;23.10;73.00
66934;DHT22;53846;51.984;5.890;2022-08-19T08:46:12;23.30;73.00
66934;DHT22;53846;51.984;5.890;2022-08-19T08:48:47;23.40;72.60
66934;DHT22;53846;51.984;5.890;2022-08-19T08:51:27;23.50;72.60
66934;DHT22;53846;51.984;5.890;2022-08-19T08:53:58;23.70;71.80
66934;DHT22;53846;51.984;5.890;2022-08-19T08:56:27;23.80;70.20
66934;DHT22;53846;51.984;5.890;2022-08-19T08:58:59;23.90;68.30
66934;DHT22;53846;51.984;5.890;2022-08-19T09:01:33;24.00;67.20
66934;DHT22;53846;51.984;5.890;2022-08-19T09:04:03;24.20;67.30
66934;DHT22;53846;51.984;5.890;2022-08-19T09:06:42;24.00;67.00
66934;DHT22;53846;51.984;5.890;2022-08-19T09:09:18;24.10;68.00
66934;DHT22;53846;51.984;5.890;2022-08-19T09:11:56;24.20;68.00
66934;DHT22;53846;51.984;5.890;2022-08-19T09:14:37;24.30;68.40
66934;DHT22;53846;51.984;5.890;2022-08-19T09:17:09;24.40;68.10
66934;DHT22;53846;51.984;5.890;2022-08-19T09:19:49;24.50;66.40
66934;DHT22;53846;51.984;5.890;2022-08-19T09:22:22;24.60;66.10
66934;DHT22;53846;51.984;5.890;2022-08-19T09:24:54;24.70;66.40
66934;DHT22;53846;51.984;5.890;2022-08-19T09:27:24;24.80;66.40
66934;DHT22;53846;51.984;5.890;2022-08-19T09:29:54;24.70;66.20
66934;DHT22;53846;51.984;5.890;2022-08-19T09:32:25;24.60;65.40
66934;DHT22;53846;51.984;5.890;2022-08-19T09:34:56;24.80;65.80
66934;DHT22;53846;51.984;5.890;2022-08-19T09:37:28;24.80;65.80
66934;DHT22;53846;51.984;5.890;2022-08-19T09:39:57;25.00;65.60
66934;DHT22;53846;51.984;5.890;2022-08-19T09:42:26;24.80;66.50
66934;DHT22;53846;51.984;5.890;2022-08-19T09:44:55;24.90;67.10
66934;DHT22;53846;51.984;5.890;2022-08-19T09:47:24;24.40;65.40
66934;DHT22;53846;51.984;5.890;2022-08-19T09:49:54;24.50;65.40
66934;DHT22;53846;51.984;5.890;2022-08-19T09:52:24;24.50;65.80
66934;DHT22;53846;51.984;5.890;2022-08-19T09:54:55;24.40;66.50
66934;DHT22;53846;51.984;5.890;2022-08-19T09:57:24;24.20;65.10
66934;DHT22;53846;51.984;5.890;2022-08-19T09:59:53;24.40;66.10
66934;DHT22;53846;51.984;5.890;2022-08-19T10:02:22;24.50;66.10
66934;DHT22;53846;51.984;5.890;2022-08-19T10:04:51;24.30;65.50
66934;DHT22;53846;51.984;5.890;2022-08-19T10:07:33;24.70;65.50
66934;DHT22;53846;51.984;5.890;2022-08-19T10:10:06;24.50;65.50
66934;DHT22;53846;51.984;5.890;2022-08-19T10:12:35;24.50;64.60
66934;DHT22;53846;51.984;5.890;2022-08-19T10:15:06;24.70;64.80
66934;DHT22;53846;51.984;5.890;2022-08-19T10:17:35;24.90;63.90
66934;DHT22;53846;51.984;5.890;2022-08-19T10:20:05;24.80;63.90
66934;DHT22;53846;51.984;5.890;2022-08-19T10:22:34;24.90;62.90
66934;DHT22;53846;51.984;5.890;2022-08-19T10:25:07;24.90;64.00
66934;DHT22;53846;51.984;5.890;2022-08-19T10:27:36;24.70;62.80
66934;DHT22;53846;51.984;5.890;2022-08-19T10:30:06;25.00;62.50
66934;DHT22;53846;51.984;5.890;2022-08-19T10:32:35;25.30;62.60
66934;DHT22;53846;51.984;5.890;2022-08-19T10:35:05;25.10;61.70
66934;DHT22;53846;51.984;5.890;2022-08-19T10:37:36;25.40;62.70
66934;DHT22;53846;51.984;5.890;2022-08-19T10:40:08;25.40;62.40
66934;DHT22;53846;51.984;5.890;2022-08-19T10:42:38;25.40;61.50
66934;DHT22;53846;51.984;5.890;2022-08-19T10:45:07;25.70;61.50
66934;DHT22;53846;51.984;5.890;2022-08-19T10:47:36;25.40;60.40
66934;DHT22;53846;51.984;5.890;2022-08-19T10:50:06;25.40;60.60
66934;DHT22;53846;51.984;5.890;2022-08-19T10:52:49;25.80;60.80
66934;DHT22;53846;51.984;5.890;2022-08-19T10:55:23;25.50;61.10
66934;DHT22;53846;51.984;5.890;2022-08-19T10:58:10;25.40;61.60
66934;DHT22;53846;51.984;5.890;2022-08-19T11:00:40;25.80;61.20
66934;DHT22;53846;51.984;5.890;2022-08-19T11:03:09;25.60;61.60
66934;DHT22;53846;51.984;5.890;2022-08-19T11:05:38;25.80;61.40
66934;DHT22;53846;51.984;5.890;2022-08-19T11:08:08;26.00;60.20
66934;DHT22;53846;51.984;5.890;2022-08-19T11:10:43;25.90;59.50
66934;DHT22;53846;51.984;5.890;2022-08-19T11:13:12;25.80;60.00
66934;DHT22;53846;51.984;5.890;2022-08-19T11:15:41;25.80;60.10
66934;DHT22;53846;51.984;5.890;2022-08-19T11:18:13;25.90;59.60
66934;DHT22;53846;51.984;5.890;2022-08-19T11:20:42;26.00;59.90
66934;DHT22;53846;51.984;5.890;2022-08-19T11:23:11;26.00;60.30
66934;DHT22;53846;51.984;5.890;2022-08-19T11:25:43;25.90;59.90
66934;DHT22;53846;51.984;5.890;2022-08-19T11:28:12;26.10;60.40
66934;DHT22;53846;51.984;5.890;2022-08-19T11:30:41;26.20;59.20
66934;DHT22;53846;51.984;5.890;2022-08-19T11:33:10;25.90;58.60
66934;DHT22;53846;51.984;5.890;2022-08-19T11:35:39;26.20;58.90
66934;DHT22;53846;51.984;5.890;2022-08-19T11:38:09;26.20;59.20
66934;DHT22;53846;51.984;5.890;2022-08-19T11:40:38;26.40;58.30
66934;DHT22;53846;51.984;5.890;2022-08-19T11:43:10;26.50;58.30
66934;DHT22;53846;51.984;5.890;2022-08-19T11:45:39;26.70;58.50
66934;DHT22;53846;51.984;5.890;2022-08-19T11:48:08;26.70;57.90
66934;DHT22;53846;51.984;5.890;2022-08-19T11:50:38;26.70;57.80
66934;DHT22;53846;51.984;5.890;2022-08-19T11:53:09;26.80;56.80
66934;DHT22;53846;51.984;5.890;2022-08-19T11:55:38;26.90;57.30
66934;DHT22;53846;51.984;5.890;2022-08-19T11:58:11;26.90;57.50
66934;DHT22;53846;51.984;5.890;2022-08-19T12:00:41;27.00;57.70
66934;DHT22;53846;51.984;5.890;2022-08-19T12:03:11;27.10;56.90
66934;DHT22;53846;51.984;5.890;2022-08-19T12:05:41;27.10;56.70
66934;DHT22;53846;51.984;5.890;2022-08-19T12:08:10;27.20;56.40
66934;DHT22;53846;51.984;5.890;2022-08-19T12:10:41;27.40;56.70
66934;DHT22;53846;51.984;5.890;2022-08-19T12:13:14;27.50;56.40
66934;DHT22;53846;51.984;5.890;2022-08-19T12:15:46;27.70;56.10
66934;DHT22;53846;51.984;5.890;2022-08-19T12:18:15;27.70;55.20
66934;DHT22;53846;51.984;5.890;2022-08-19T12:20:44;27.80;55.90
66934;DHT22;53846;51.984;5.890;2022-08-19T12:23:13;28.10;55.70
66934;DHT22;53846;51.984;5.890;2022-08-19T12:25:45;28.10;55.60
66934;DHT22;53846;51.984;5.890;2022-08-19T12:28:19;27.90;55.80
66934;DHT22;53846;51.984;5.890;2022-08-19T12:30:49;28.00;55.30
66934;DHT22;53846;51.984;5.890;2022-08-19T12:33:19;28.10;55.80
66934;DHT22;53846;51.984;5.890;2022-08-19T12:35:51;28.10;55.60
66934;DHT22;53846;51.984;5.890;2022-08-19T12:38:21;28.00;56.30
66934;DHT22;53846;51.984;5.890;2022-08-19T12:40:51;28.10;55.80
66934;DHT22;53846;51.984;5.890;2022-08-19T12:43:22;28.10;55.90
66934;DHT22;53846;51.984;5.890;2022-08-19T12:45:52;28.20;55.90
66934;DHT22;53846;51.984;5.890;2022-08-19T12:48:21;28.10;55.10
66934;DHT22;53846;51.984;5.890;2022-08-19T12:50:50;28.20;55.70
66934;DHT22;53846;51.984;5.890;2022-08-19T12:53:20;28.10;55.50
66934;DHT22;53846;51.984;5.890;2022-08-19T12:55:54;28.20;54.90
66934;DHT22;53846;51.984;5.890;2022-08-19T12:58:29;28.20;55.70
66934;DHT22;53846;51.984;5.890;2022-08-19T13:01:05;28.10;56.40
66934;DHT22;53846;51.984;5.890;2022-08-19T13:03:34;28.10;56.20
66934;DHT22;53846;51.984;5.890;2022-08-19T13:06:03;28.10;56.30
66934;DHT22;53846;51.984;5.890;2022-08-19T13:08:32;28.40;56.10
66934;DHT22;53846;51.984;5.890;2022-08-19T13:11:09;28.20;55.30
66934;DHT22;53846;51.984;5.890;2022-08-19T13:13:45;28.50;56.00
66934;DHT22;53846;51.984;5.890;2022-08-19T13:16:14;28.40;55.40
66934;DHT22;53846;51.984;5.890;2022-08-19T13:18:45;28.40;54.80
66934;DHT22;53846;51.984;5.890;2022-08-19T13:21:15;28.50;55.30
66934;DHT22;53846;51.984;5.890;2022-08-19T13:23:46;28.50;55.50
66934;DHT22;53846;51.984;5.890;2022-08-19T13:26:15;28.70;55.00
66934;DHT22;53846;51.984;5.890;2022-08-19T13:28:47;28.70;54.60
66934;DHT22;53846;51.984;5.890;2022-08-19T13:31:31;28.70;54.80
66934;DHT22;53846;51.984;5.890;2022-08-19T13:34:13;28.50;53.60
66934;DHT22;53846;51.984;5.890;2022-08-19T13:36:42;28.60;54.00
66934;DHT22;53846;51.984;5.890;2022-08-19T13:39:12;28.80;53.80
66934;DHT22;53846;51.984;5.890;2022-08-19T13:41:44;28.90;54.40
66934;DHT22;53846;51.984;5.890;2022-08-19T13:44:18;28.70;54.90
66934;DHT22;53846;51.984;5.890;2022-08-19T13:46:48;29.00;53.70
66934;DHT22;53846;51.984;5.890;2022-08-19T13:49:19;28.70;54.30
66934;DHT22;53846;51.984;5.890;2022-08-19T13:51:49;28.70;54.50
66934;DHT22;53846;51.984;5.890;2022-08-19T13:54:18;28.60;55.50
66934;DHT22;53846;51.984;5.890;2022-08-19T13:56:47;28.30;54.80
66934;DHT22;53846;51.984;5.890;2022-08-19T13:59:19;28.30;55.00
66934;DHT22;53846;51.984;5.890;2022-08-19T14:01:48;28.50;56.00
66934;DHT22;53846;51.984;5.890;2022-08-19T14:04:17;28.40;56.10
66934;DHT22;53846;51.984;5.890;2022-08-19T14:06:46;28.40;55.60
66934;DHT22;53846;51.984;5.890;2022-08-19T14:09:15;28.60;56.20
66934;DHT22;53846;51.984;5.890;2022-08-19T14:11:44;28.40;55.70
66934;DHT22;53846;51.984;5.890;2022-08-19T14:14:13;28.70;55.70
66934;DHT22;53846;51.984;5.890;2022-08-19T14:16:44;28.50;55.80
66934;DHT22;53846;51.984;5.890;2022-08-19T14:19:14;28.10;55.90
66934;DHT22;53846;51.984;5.890;2022-08-19T14:21:43;28.00;56.10
66934;DHT22;53846;51.984;5.890;2022-08-19T14:24:12;27.90;56.60
66934;DHT22;53846;51.984;5.890;2022-08-19T14:26:41;27.80;57.20
66934;DHT22;53846;51.984;5.890;2022-08-19T14:29:10;27.60;57.70
66934;DHT22;53846;51.984;5.890;2022-08-19T14:31:39;27.20;58.10
66934;DHT22;53846;51.984;5.890;2022-08-19T14:34:12;27.30;58.60
66934;DHT22;53846;51.984;5.890;2022-08-19T14:36:41;27.00;58.40
66934;DHT22;53846;51.984;5.890;2022-08-19T14:39:11;27.40;58.70
66934;DHT22;53846;51.984;5.890;2022-08-19T14:41:41;27.00;59.40
66934;DHT22;53846;51.984;5.890;2022-08-19T14:44:11;26.90;59.60
66934;DHT22;53846;51.984;5.890;2022-08-19T14:46:40;26.80;59.60
66934;DHT22;53846;51.984;5.890;2022-08-19T14:49:12;26.80;60.40
66934;DHT22;53846;51.984;5.890;2022-08-19T14:51:41;26.70;60.70
66934;DHT22;53846;51.984;5.890;2022-08-19T14:54:12;26.40;60.10
66934;DHT22;53846;51.984;5.890;2022-08-19T14:56:41;26.40;61.00
66934;DHT22;53846;51.984;5.890;2022-08-19T14:59:10;26.40;60.90
66934;DHT22;53846;51.984;5.890;2022-08-19T15:01:40;26.30;61.00
66934;DHT22;53846;51.984;5.890;2022-08-19T15:04:12;26.30;61.20
66934;DHT22;53846;51.984;5.890;2022-08-19T15:06:41;26.20;61.30
66934;DHT22;53846;51.984;5.890;2022-08-19T15:09:10;26.10;62.30
66934;DHT22;53846;51.984;5.890;2022-08-19T15:11:39;26.10;62.70
66934;DHT22;53846;51.984;5.890;2022-08-19T15:14:08;26.00;62.00
66934;DHT22;53846;51.984;5.890;2022-08-19T15:16:37;25.80;63.20
66934;DHT22;53846;51.984;5.890;2022-08-19T15:19:08;25.90;63.30
66934;DHT22;53846;51.984;5.890;2022-08-19T15:21:40;25.80;63.30
66934;DHT22;53846;51.984;5.890;2022-08-19T15:24:09;25.90;63.00
66934;DHT22;53846;51.984;5.890;2022-08-19T15:26:38;25.80;63.10
66934;DHT22;53846;51.984;5.890;2022-08-19T15:29:08;25.80;64.30
66934;DHT22;53846;51.984;5.890;2022-08-19T15:31:38;25.80;64.80
66934;DHT22;53846;51.984;5.890;2022-08-19T15:34:08;25.80;64.90
66934;DHT22;53846;51.984;5.890;2022-08-19T15:36:39;25.90;65.50
66934;DHT22;53846;51.984;5.890;2022-08-19T15:39:08;25.80;65.40
66934;DHT22;53846;51.984;5.890;2022-08-19T15:41:38;25.70;65.60
66934;DHT22;53846;51.984;5.890;2022-08-19T15:44:10;25.80;65.90
66934;DHT22;53846;51.984;5.890;2022-08-19T15:46:42;25.70;65.80
66934;DHT22;53846;51.984;5.890;2022-08-19T15:49:14;25.70;66.40
66934;DHT22;53846;51.984;5.890;2022-08-19T15:51:47;25.70;66.10